sensor_id;sensor_type;location;lat;lon;timestamp;temperature;humidity
51559;DHT22;61650;48.882;2.092;2023-06-19T00:00:44;17.00;99.90
51559;DHT22;61650;48.882;2.092;2023-06-19T00:03:10;17.00;99.90
51559;DHT22;61650;48.882;2.092;2023-06-19T00:05:35;17.00;99.90
51559;DHT22;61650;48.882;2.092;2023-06-19T00:08:01;17.00;99.90
51559;DHT22;61650;48.882;2.092;2023-06-19T00:10:28;17.00;99.90
51559;DHT22;61650;48.882;2.092;2023-06-19T00:12:54;17.00;99.90
51559;DHT22;61650;48.882;2.092;2023-06-19T00:15:20;16.90;99.90
51559;DHT22;61650;48.882;2.092;2023-06-19T00:17:45;16.80;99.90
51559;DHT22;61650;48.882;2.092;2023-06-19T00:20:11;16.80;99.90
51559;DHT22;61650;48.882;2.092;2023-06-19T00:22:39;16.70;99.90
51559;DHT22;61650;48.882;2.092;2023-06-19T00:25:04;16.60;99.90
51559;DHT22;61650;48.882;2.092;2023-06-19T00:27:30;16.60;99.90
51559;DHT22;61650;48.882;2.092;2023-06-19T00:29:56;16.50;99.90
51559;DHT22;61650;48.882;2.092;2023-06-19T00:32:28;16.50;99.90
51559;DHT22;61650;48.882;2.092;2023-06-19T00:34:53;16.50;99.90
51559;DHT22;61650;48.882;2.092;2023-06-19T00:37:19;16.50;99.90
51559;DHT22;61650;48.882;2.092;2023-06-19T00:39:44;16.50;99.90
51559;DHT22;61650;48.882;2.092;2023-06-19T00:42:10;16.40;99.90
51559;DHT22;61650;48.882;2.092;2023-06-19T00:44:36;16.40;99.90
51559;DHT22;61650;48.882;2.092;2023-06-19T00:47:03;16.40;99.90
51559;DHT22;61650;48.882;2.092;2023-06-19T00:49:30;16.40;99.90
51559;DHT22;61650;48.882;2.092;2023-06-19T00:51:56;16.40;99.90
51559;DHT22;61650;48.882;2.092;2023-06-19T00:54:22;16.40;99.90
51559;DHT22;61650;48.882;2.092;2023-06-19T00:56:48;16.40;99.90
51559;DHT22;61650;48.882;2.092;2023-06-19T00:59:19;16.40;99.90
51559;DHT22;61650;48.882;2.092;2023-06-19T01:01:44;16.40;99.90
51559;DHT22;61650;48.882;2.092;2023-06-19T01:04:11;16.30;99.90
51559;DHT22;61650;48.882;2.092;2023-06-19T01:06:50;16.30;99.90
51559;DHT22;61650;48.882;2.092;2023-06-19T01:09:18;16.30;99.90
51559;DHT22;61650;48.882;2.092;2023-06-19T01:11:53;16.40;99.90
51559;DHT22;61650;48.882;2.092;2023-06-19T01:14:33;16.40;99.90
51559;DHT22;61650;48.882;2.092;2023-06-19T01:17:01;16.40;99.90
51559;DHT22;61650;48.882;2.092;2023-06-19T01:19:27;16.40;99.90
51559;DHT22;61650;48.882;2.092;2023-06-19T01:21:53;16.30;99.90
51559;DHT22;61650;48.882;2.092;2023-06-19T01:24:19;16.30;99.90
51559;DHT22;61650;48.882;2.092;2023-06-19T01:26:45;16.30;99.90
51559;DHT22;61650;48.882;2.092;2023-06-19T01:29:12;16.30;99.90
51559;DHT22;61650;48.882;2.092;2023-06-19T01:34:10;16.30;99.90
51559;DHT22;61650;48.882;2.092;2023-06-19T01:36:37;16.30;99.90
51559;DHT22;61650;48.882;2.092;2023-06-19T01:39:04;16.30;99.90
51559;DHT22;61650;48.882;2.092;2023-06-19T01:41:32;16.30;99.90
51559;DHT22;61650;48.882;2.092;2023-06-19T01:43:58;16.30;99.90
51559;DHT22;61650;48.882;2.092;2023-06-19T01:46:24;16.20;99.90
51559;DHT22;61650;48.882;2.092;2023-06-19T01:48:49;16.20;99.90
51559;DHT22;61650;48.882;2.092;2023-06-19T01:51:16;16.20;99.90
51559;DHT22;61650;48.882;2.092;2023-06-19T01:53:41;16.20;99.90
51559;DHT22;61650;48.882;2.092;2023-06-19T01:56:07;16.20;99.90
51559;DHT22;61650;48.882;2.092;2023-06-19T01:58:33;16.20;99.90
51559;DHT22;61650;48.882;2.092;2023-06-19T02:00:58;16.20;99.90
51559;DHT22;61650;48.882;2.092;2023-06-19T02:03:24;16.30;99.90
51559;DHT22;61650;48.882;2.092;2023-06-19T02:05:50;16.30;99.90
51559;DHT22;61650;48.882;2.092;2023-06-19T02:08:16;16.20;99.90
51559;DHT22;61650;48.882;2.092;2023-06-19T02:10:41;16.20;99.90
51559;DHT22;61650;48.882;2.092;2023-06-19T02:13:07;16.30;99.90
51559;DHT22;61650;48.882;2.092;2023-06-19T02:15:33;16.30;99.90
51559;DHT22;61650;48.882;2.092;2023-06-19T02:18:00;16.30;99.90
51559;DHT22;61650;48.882;2.092;2023-06-19T02:20:25;16.40;99.90
51559;DHT22;61650;48.882;2.092;2023-06-19T02:22:51;16.40;99.90
51559;DHT22;61650;48.882;2.092;2023-06-19T02:25:17;16.40;99.90
51559;DHT22;61650;48.882;2.092;2023-06-19T02:27:44;16.40;99.90
51559;DHT22;61650;48.882;2.092;2023-06-19T02:30:10;16.40;99.90
51559;DHT22;61650;48.882;2.092;2023-06-19T02:32:35;16.40;99.90
51559;DHT22;61650;48.882;2.092;2023-06-19T02:35:02;16.40;99.90
51559;DHT22;61650;48.882;2.092;2023-06-19T02:37:27;16.30;99.90
51559;DHT22;61650;48.882;2.092;2023-06-19T02:39:55;16.30;99.90
51559;DHT22;61650;48.882;2.092;2023-06-19T02:42:20;16.30;99.90
51559;DHT22;61650;48.882;2.092;2023-06-19T02:44:46;16.30;99.90
51559;DHT22;61650;48.882;2.092;2023-06-19T02:47:11;16.30;99.90
51559;DHT22;61650;48.882;2.092;2023-06-19T02:49:37;16.30;99.90
51559;DHT22;61650;48.882;2.092;2023-06-19T02:52:03;16.40;99.90
51559;DHT22;61650;48.882;2.092;2023-06-19T02:54:29;16.40;99.90
51559;DHT22;61650;48.882;2.092;2023-06-19T02:56:55;16.40;99.90
51559;DHT22;61650;48.882;2.092;2023-06-19T02:59:20;16.40;99.90
51559;DHT22;61650;48.882;2.092;2023-06-19T03:01:46;16.50;99.90
51559;DHT22;61650;48.882;2.092;2023-06-19T03:04:13;16.40;99.90
51559;DHT22;61650;48.882;2.092;2023-06-19T03:06:38;16.40;99.90
51559;DHT22;61650;48.882;2.092;2023-06-19T03:09:05;16.50;99.90
51559;DHT22;61650;48.882;2.092;2023-06-19T03:11:39;16.50;99.90
51559;DHT22;61650;48.882;2.092;2023-06-19T03:14:05;16.40;99.90
51559;DHT22;61650;48.882;2.092;2023-06-19T03:16:33;16.40;99.90
51559;DHT22;61650;48.882;2.092;2023-06-19T03:18:59;16.40;99.90
51559;DHT22;61650;48.882;2.092;2023-06-19T03:21:25;16.50;99.90
51559;DHT22;61650;48.882;2.092;2023-06-19T03:23:50;16.50;99.90
51559;DHT22;61650;48.882;2.092;2023-06-19T03:26:17;16.50;99.90
51559;DHT22;61650;48.882;2.092;2023-06-19T03:28:43;16.50;99.90
51559;DHT22;61650;48.882;2.092;2023-06-19T03:31:09;16.50;99.90
51559;DHT22;61650;48.882;2.092;2023-06-19T03:33:34;16.40;99.90
51559;DHT22;61650;48.882;2.092;2023-06-19T03:36:02;16.40;99.90
51559;DHT22;61650;48.882;2.092;2023-06-19T03:38:28;16.40;99.90
51559;DHT22;61650;48.882;2.092;2023-06-19T03:40:54;16.40;99.90
51559;DHT22;61650;48.882;2.092;2023-06-19T03:43:20;16.40;99.90
51559;DHT22;61650;48.882;2.092;2023-06-19T03:45:45;16.40;99.90
51559;DHT22;61650;48.882;2.092;2023-06-19T03:48:11;16.40;99.90
51559;DHT22;61650;48.882;2.092;2023-06-19T03:50:37;16.40;99.90
51559;DHT22;61650;48.882;2.092;2023-06-19T03:53:02;16.40;99.90
51559;DHT22;61650;48.882;2.092;2023-06-19T03:55:28;16.50;99.90
51559;DHT22;61650;48.882;2.092;2023-06-19T03:57:54;16.40;99.90
51559;DHT22;61650;48.882;2.092;2023-06-19T04:00:19;16.50;99.90
51559;DHT22;61650;48.882;2.092;2023-06-19T04:02:45;16.50;99.90
51559;DHT22;61650;48.882;2.092;2023-06-19T04:05:16;16.50;99.90
51559;DHT22;61650;48.882;2.092;2023-06-19T04:07:42;16.50;99.90
51559;DHT22;61650;48.882;2.092;2023-06-19T04:10:08;16.50;99.90
51559;DHT22;61650;48.882;2.092;2023-06-19T04:12:34;16.50;99.90
51559;DHT22;61650;48.882;2.092;2023-06-19T04:15:00;16.50;99.90
51559;DHT22;61650;48.882;2.092;2023-06-19T04:17:25;16.40;99.90
51559;DHT22;61650;48.882;2.092;2023-06-19T04:19:53;16.40;99.90
51559;DHT22;61650;48.882;2.092;2023-06-19T04:22:18;16.40;99.90
51559;DHT22;61650;48.882;2.092;2023-06-19T04:24:44;16.30;99.90
51559;DHT22;61650;48.882;2.092;2023-06-19T04:27:10;16.40;99.90
51559;DHT22;61650;48.882;2.092;2023-06-19T04:29:35;16.40;99.90
51559;DHT22;61650;48.882;2.092;2023-06-19T04:32:01;16.40;99.90
51559;DHT22;61650;48.882;2.092;2023-06-19T04:34:29;16.40;99.90
51559;DHT22;61650;48.882;2.092;2023-06-19T04:36:54;16.30;99.90
51559;DHT22;61650;48.882;2.092;2023-06-19T04:39:24;16.30;99.90
51559;DHT22;61650;48.882;2.092;2023-06-19T04:41:49;16.40;99.90
51559;DHT22;61650;48.882;2.092;2023-06-19T04:44:15;16.40;99.90
51559;DHT22;61650;48.882;2.092;2023-06-19T04:46:41;16.40;99.90
51559;DHT22;61650;48.882;2.092;2023-06-19T04:49:06;16.40;99.90
51559;DHT22;61650;48.882;2.092;2023-06-19T04:51:32;16.50;99.90
51559;DHT22;61650;48.882;2.092;2023-06-19T04:53:59;16.60;99.90
51559;DHT22;61650;48.882;2.092;2023-06-19T04:56:24;16.60;99.90
51559;DHT22;61650;48.882;2.092;2023-06-19T04:58:50;16.70;99.90
51559;DHT22;61650;48.882;2.092;2023-06-19T05:01:17;16.70;99.90
51559;DHT22;61650;48.882;2.092;2023-06-19T05:03:44;16.80;99.90
51559;DHT22;61650;48.882;2.092;2023-06-19T05:06:11;16.80;99.90
51559;DHT22;61650;48.882;2.092;2023-06-19T05:08:37;16.80;99.90
51559;DHT22;61650;48.882;2.092;2023-06-19T05:11:03;16.80;99.90
51559;DHT22;61650;48.882;2.092;2023-06-19T05:13:28;16.80;99.90
51559;DHT22;61650;48.882;2.092;2023-06-19T05:15:54;16.80;99.90
51559;DHT22;61650;48.882;2.092;2023-06-19T05:18:21;16.80;99.90
51559;DHT22;61650;48.882;2.092;2023-06-19T05:20:47;16.90;99.90
51559;DHT22;61650;48.882;2.092;2023-06-19T05:23:13;16.90;99.90
51559;DHT22;61650;48.882;2.092;2023-06-19T05:25:38;16.90;99.90
51559;DHT22;61650;48.882;2.092;2023-06-19T05:28:04;16.80;99.90
51559;DHT22;61650;48.882;2.092;2023-06-19T05:30:30;16.90;99.90
51559;DHT22;61650;48.882;2.092;2023-06-19T05:32:56;17.00;99.90
51559;DHT22;61650;48.882;2.092;2023-06-19T05:35:21;17.00;99.90
51559;DHT22;61650;48.882;2.092;2023-06-19T05:37:47;17.00;99.90
51559;DHT22;61650;48.882;2.092;2023-06-19T05:40:13;17.00;99.90
51559;DHT22;61650;48.882;2.092;2023-06-19T05:42:40;17.00;99.90
51559;DHT22;61650;48.882;2.092;2023-06-19T05:45:06;17.10;99.90
51559;DHT22;61650;48.882;2.092;2023-06-19T05:47:32;17.10;99.90
51559;DHT22;61650;48.882;2.092;2023-06-19T05:49:58;17.20;99.90
51559;DHT22;61650;48.882;2.092;2023-06-19T05:52:24;17.30;99.90
51559;DHT22;61650;48.882;2.092;2023-06-19T05:54:50;17.40;99.90
51559;DHT22;61650;48.882;2.092;2023-06-19T05:57:15;17.40;99.90
51559;DHT22;61650;48.882;2.092;2023-06-19T05:59:44;17.50;99.90
51559;DHT22;61650;48.882;2.092;2023-06-19T06:02:09;17.50;99.90
51559;DHT22;61650;48.882;2.092;2023-06-19T06:04:35;17.50;99.90
51559;DHT22;61650;48.882;2.092;2023-06-19T06:07:01;17.50;99.90
51559;DHT22;61650;48.882;2.092;2023-06-19T06:09:27;17.50;99.90
51559;DHT22;61650;48.882;2.092;2023-06-19T06:11:53;17.50;99.90
51559;DHT22;61650;48.882;2.092;2023-06-19T06:14:18;17.60;99.90
51559;DHT22;61650;48.882;2.092;2023-06-19T06:16:44;17.60;99.90
51559;DHT22;61650;48.882;2.092;2023-06-19T06:19:10;17.60;99.90
51559;DHT22;61650;48.882;2.092;2023-06-19T06:21:35;17.70;99.90
51559;DHT22;61650;48.882;2.092;2023-06-19T06:24:01;17.90;99.90
51559;DHT22;61650;48.882;2.092;2023-06-19T06:26:27;18.10;99.90
51559;DHT22;61650;48.882;2.092;2023-06-19T06:28:53;18.20;99.90
51559;DHT22;61650;48.882;2.092;2023-06-19T06:31:19;18.20;99.90
51559;DHT22;61650;48.882;2.092;2023-06-19T06:33:45;18.20;99.90
51559;DHT22;61650;48.882;2.092;2023-06-19T06:36:10;18.20;99.90
51559;DHT22;61650;48.882;2.092;2023-06-19T06:38:36;18.30;99.90
51559;DHT22;61650;48.882;2.092;2023-06-19T06:41:02;18.40;99.90
51559;DHT22;61650;48.882;2.092;2023-06-19T06:43:27;18.50;99.90
51559;DHT22;61650;48.882;2.092;2023-06-19T06:45:53;18.50;99.90
51559;DHT22;61650;48.882;2.092;2023-06-19T06:48:20;18.50;99.90
51559;DHT22;61650;48.882;2.092;2023-06-19T06:50:46;18.60;99.90
51559;DHT22;61650;48.882;2.092;2023-06-19T06:53:11;18.60;99.90
51559;DHT22;61650;48.882;2.092;2023-06-19T06:55:37;18.70;99.90
51559;DHT22;61650;48.882;2.092;2023-06-19T06:58:03;18.70;99.90
51559;DHT22;61650;48.882;2.092;2023-06-19T07:00:28;18.50;99.90
51559;DHT22;61650;48.882;2.092;2023-06-19T07:02:54;18.50;99.90
51559;DHT22;61650;48.882;2.092;2023-06-19T07:05:20;18.40;99.90
51559;DHT22;61650;48.882;2.092;2023-06-19T07:07:45;18.50;99.90
51559;DHT22;61650;48.882;2.092;2023-06-19T07:10:11;18.60;99.90
51559;DHT22;61650;48.882;2.092;2023-06-19T07:12:45;18.60;99.90
51559;DHT22;61650;48.882;2.092;2023-06-19T07:15:10;18.60;99.90
51559;DHT22;61650;48.882;2.092;2023-06-19T07:17:37;18.70;99.90
51559;DHT22;61650;48.882;2.092;2023-06-19T07:20:03;18.70;99.90
51559;DHT22;61650;48.882;2.092;2023-06-19T07:22:29;18.80;99.90
51559;DHT22;61650;48.882;2.092;2023-06-19T07:24:55;18.80;99.90
51559;DHT22;61650;48.882;2.092;2023-06-19T07:27:20;18.80;99.90
51559;DHT22;61650;48.882;2.092;2023-06-19T07:29:46;18.80;99.90
51559;DHT22;61650;48.882;2.092;2023-06-19T07:32:11;18.90;99.90
51559;DHT22;61650;48.882;2.092;2023-06-19T07:34:37;18.90;99.90
51559;DHT22;61650;48.882;2.092;2023-06-19T07:37:03;18.80;99.90
51559;DHT22;61650;48.882;2.092;2023-06-19T07:39:28;18.90;99.90
51559;DHT22;61650;48.882;2.092;2023-06-19T07:41:54;19.00;99.90
51559;DHT22;61650;48.882;2.092;2023-06-19T07:44:19;19.00;99.90
51559;DHT22;61650;48.882;2.092;2023-06-19T07:46:46;19.00;99.90
51559;DHT22;61650;48.882;2.092;2023-06-19T07:49:12;19.00;99.90
51559;DHT22;61650;48.882;2.092;2023-06-19T07:51:37;19.10;99.90
51559;DHT22;61650;48.882;2.092;2023-06-19T07:54:03;19.20;99.90
51559;DHT22;61650;48.882;2.092;2023-06-19T07:56:29;19.20;99.90
51559;DHT22;61650;48.882;2.092;2023-06-19T07:58:54;19.20;99.90
51559;DHT22;61650;48.882;2.092;2023-06-19T08:01:20;19.30;99.90
51559;DHT22;61650;48.882;2.092;2023-06-19T08:03:46;19.30;99.90
51559;DHT22;61650;48.882;2.092;2023-06-19T08:06:11;19.10;99.90
51559;DHT22;61650;48.882;2.092;2023-06-19T08:08:37;19.20;99.90
51559;DHT22;61650;48.882;2.092;2023-06-19T08:11:03;19.20;99.90
51559;DHT22;61650;48.882;2.092;2023-06-19T08:13:28;19.30;99.90
51559;DHT22;61650;48.882;2.092;2023-06-19T08:15:54;19.40;99.90
51559;DHT22;61650;48.882;2.092;2023-06-19T08:18:19;19.40;99.90
51559;DHT22;61650;48.882;2.092;2023-06-19T08:20:45;19.30;99.90
51559;DHT22;61650;48.882;2.092;2023-06-19T08:23:11;19.30;99.90
51559;DHT22;61650;48.882;2.092;2023-06-19T08:25:36;19.30;99.90
51559;DHT22;61650;48.882;2.092;2023-06-19T08:28:02;19.30;99.90
51559;DHT22;61650;48.882;2.092;2023-06-19T08:30:28;19.40;99.90
51559;DHT22;61650;48.882;2.092;2023-06-19T08:32:53;19.50;99.90
51559;DHT22;61650;48.882;2.092;2023-06-19T08:35:19;19.60;99.90
51559;DHT22;61650;48.882;2.092;2023-06-19T08:37:44;19.60;99.90
51559;DHT22;61650;48.882;2.092;2023-06-19T08:40:11;19.60;99.90
51559;DHT22;61650;48.882;2.092;2023-06-19T08:42:37;19.70;99.90
51559;DHT22;61650;48.882;2.092;2023-06-19T08:45:08;19.60;99.90
51559;DHT22;61650;48.882;2.092;2023-06-19T08:47:34;19.70;99.90
51559;DHT22;61650;48.882;2.092;2023-06-19T08:50:00;19.90;99.90
51559;DHT22;61650;48.882;2.092;2023-06-19T08:52:25;20.00;99.90
51559;DHT22;61650;48.882;2.092;2023-06-19T08:54:51;19.90;99.90
51559;DHT22;61650;48.882;2.092;2023-06-19T08:57:17;20.00;99.90
51559;DHT22;61650;48.882;2.092;2023-06-19T08:59:49;20.10;99.90
51559;DHT22;61650;48.882;2.092;2023-06-19T09:02:16;19.90;99.90
51559;DHT22;61650;48.882;2.092;2023-06-19T09:04:42;20.00;99.90
51559;DHT22;61650;48.882;2.092;2023-06-19T09:07:08;20.10;99.90
51559;DHT22;61650;48.882;2.092;2023-06-19T09:09:34;20.30;99.90
51559;DHT22;61650;48.882;2.092;2023-06-19T09:14:36;20.50;99.90
51559;DHT22;61650;48.882;2.092;2023-06-19T09:17:03;20.50;99.90
51559;DHT22;61650;48.882;2.092;2023-06-19T09:19:30;20.40;99.90
51559;DHT22;61650;48.882;2.092;2023-06-19T09:22:09;20.40;99.90
51559;DHT22;61650;48.882;2.092;2023-06-19T09:24:36;20.50;99.90
51559;DHT22;61650;48.882;2.092;2023-06-19T09:29:32;21.10;99.90
51559;DHT22;61650;48.882;2.092;2023-06-19T09:32:01;21.40;99.90
51559;DHT22;61650;48.882;2.092;2023-06-19T09:34:26;21.40;99.90
51559;DHT22;61650;48.882;2.092;2023-06-19T09:36:52;21.50;99.90
51559;DHT22;61650;48.882;2.092;2023-06-19T09:39:19;21.60;99.90
51559;DHT22;61650;48.882;2.092;2023-06-19T09:41:46;21.80;99.90
51559;DHT22;61650;48.882;2.092;2023-06-19T09:44:14;21.90;99.90
51559;DHT22;61650;48.882;2.092;2023-06-19T09:46:44;21.80;99.90
51559;DHT22;61650;48.882;2.092;2023-06-19T09:49:12;21.50;99.90
51559;DHT22;61650;48.882;2.092;2023-06-19T09:51:41;21.30;99.90
51559;DHT22;61650;48.882;2.092;2023-06-19T09:54:09;21.20;99.90
51559;DHT22;61650;48.882;2.092;2023-06-19T09:56:35;21.00;99.90
51559;DHT22;61650;48.882;2.092;2023-06-19T09:59:03;21.20;99.90
51559;DHT22;61650;48.882;2.092;2023-06-19T10:01:30;21.40;99.90
51559;DHT22;61650;48.882;2.092;2023-06-19T10:04:05;21.40;99.90
51559;DHT22;61650;48.882;2.092;2023-06-19T10:06:31;21.50;99.90
51559;DHT22;61650;48.882;2.092;2023-06-19T10:09:06;21.50;99.90
51559;DHT22;61650;48.882;2.092;2023-06-19T10:11:49;21.40;99.90
51559;DHT22;61650;48.882;2.092;2023-06-19T10:14:17;21.50;99.90
51559;DHT22;61650;48.882;2.092;2023-06-19T10:16:44;21.80;99.90
51559;DHT22;61650;48.882;2.092;2023-06-19T10:19:17;21.80;99.90
51559;DHT22;61650;48.882;2.092;2023-06-19T10:21:52;21.80;99.90
51559;DHT22;61650;48.882;2.092;2023-06-19T10:24:19;22.00;99.90
51559;DHT22;61650;48.882;2.092;2023-06-19T10:26:59;22.40;99.90
51559;DHT22;61650;48.882;2.092;2023-06-19T10:29:26;22.40;99.90
51559;DHT22;61650;48.882;2.092;2023-06-19T10:31:53;22.40;99.90
51559;DHT22;61650;48.882;2.092;2023-06-19T10:34:18;22.50;99.90
51559;DHT22;61650;48.882;2.092;2023-06-19T10:36:44;23.10;99.90
51559;DHT22;61650;48.882;2.092;2023-06-19T10:39:10;23.20;99.90
51559;DHT22;61650;48.882;2.092;2023-06-19T10:41:35;23.00;99.90
51559;DHT22;61650;48.882;2.092;2023-06-19T10:44:06;22.90;99.90
51559;DHT22;61650;48.882;2.092;2023-06-19T10:46:36;22.80;99.90
51559;DHT22;61650;48.882;2.092;2023-06-19T10:49:03;22.50;99.90
51559;DHT22;61650;48.882;2.092;2023-06-19T10:51:30;22.50;99.90
51559;DHT22;61650;48.882;2.092;2023-06-19T10:53:57;22.60;99.90
51559;DHT22;61650;48.882;2.092;2023-06-19T10:56:23;22.80;99.90
51559;DHT22;61650;48.882;2.092;2023-06-19T10:58:57;22.80;99.90
51559;DHT22;61650;48.882;2.092;2023-06-19T11:01:23;22.80;99.90
51559;DHT22;61650;48.882;2.092;2023-06-19T11:03:57;22.80;99.90
51559;DHT22;61650;48.882;2.092;2023-06-19T11:06:24;22.70;99.90
51559;DHT22;61650;48.882;2.092;2023-06-19T11:08:53;22.80;99.90
51559;DHT22;61650;48.882;2.092;2023-06-19T11:11:19;23.00;99.90
51559;DHT22;61650;48.882;2.092;2023-06-19T11:13:45;22.80;99.90
51559;DHT22;61650;48.882;2.092;2023-06-19T11:16:11;22.90;99.90
51559;DHT22;61650;48.882;2.092;2023-06-19T11:18:39;22.80;99.90
51559;DHT22;61650;48.882;2.092;2023-06-19T11:21:05;22.80;99.90
51559;DHT22;61650;48.882;2.092;2023-06-19T11:23:30;22.70;99.90
51559;DHT22;61650;48.882;2.092;2023-06-19T11:26:04;22.80;99.90
51559;DHT22;61650;48.882;2.092;2023-06-19T11:28:29;22.90;99.90
51559;DHT22;61650;48.882;2.092;2023-06-19T11:31:00;22.90;99.90
51559;DHT22;61650;48.882;2.092;2023-06-19T11:33:29;23.00;99.90
51559;DHT22;61650;48.882;2.092;2023-06-19T11:36:00;23.00;99.90
51559;DHT22;61650;48.882;2.092;2023-06-19T11:38:26;23.00;99.90
51559;DHT22;61650;48.882;2.092;2023-06-19T11:40:53;23.00;99.90
51559;DHT22;61650;48.882;2.092;2023-06-19T11:43:30;23.10;99.90
51559;DHT22;61650;48.882;2.092;2023-06-19T11:46:03;23.00;99.90
51559;DHT22;61650;48.882;2.092;2023-06-19T11:48:29;23.00;99.90
51559;DHT22;61650;48.882;2.092;2023-06-19T11:50:55;23.00;99.90
51559;DHT22;61650;48.882;2.092;2023-06-19T11:53:22;22.80;99.90
51559;DHT22;61650;48.882;2.092;2023-06-19T11:55:48;22.90;99.90
51559;DHT22;61650;48.882;2.092;2023-06-19T11:58:14;23.00;99.90
51559;DHT22;61650;48.882;2.092;2023-06-19T12:00:43;23.00;99.90
51559;DHT22;61650;48.882;2.092;2023-06-19T12:03:09;23.00;99.90
51559;DHT22;61650;48.882;2.092;2023-06-19T12:05:36;22.90;99.90
51559;DHT22;61650;48.882;2.092;2023-06-19T12:08:02;22.80;99.90
51559;DHT22;61650;48.882;2.092;2023-06-19T12:10:28;22.90;99.90
51559;DHT22;61650;48.882;2.092;2023-06-19T12:12:54;23.10;99.90
51559;DHT22;61650;48.882;2.092;2023-06-19T12:15:20;23.10;99.90
51559;DHT22;61650;48.882;2.092;2023-06-19T12:17:46;23.10;96.90
51559;DHT22;61650;48.882;2.092;2023-06-19T12:20:12;23.10;97.10
51559;DHT22;61650;48.882;2.092;2023-06-19T12:22:39;23.10;89.30
51559;DHT22;61650;48.882;2.092;2023-06-19T12:25:05;23.10;94.80
51559;DHT22;61650;48.882;2.092;2023-06-19T12:27:30;23.10;90.60
51559;DHT22;61650;48.882;2.092;2023-06-19T12:29:56;23.10;86.60
51559;DHT22;61650;48.882;2.092;2023-06-19T12:32:22;23.00;86.80
51559;DHT22;61650;48.882;2.092;2023-06-19T12:34:48;23.00;80.00
51559;DHT22;61650;48.882;2.092;2023-06-19T12:37:19;22.90;85.30
51559;DHT22;61650;48.882;2.092;2023-06-19T12:39:46;23.00;83.40
51559;DHT22;61650;48.882;2.092;2023-06-19T12:42:15;23.00;87.10
51559;DHT22;61650;48.882;2.092;2023-06-19T12:44:41;22.90;83.50
51559;DHT22;61650;48.882;2.092;2023-06-19T12:47:07;22.90;84.70
51559;DHT22;61650;48.882;2.092;2023-06-19T12:49:33;22.80;82.60
51559;DHT22;61650;48.882;2.092;2023-06-19T12:51:59;22.70;79.20
51559;DHT22;61650;48.882;2.092;2023-06-19T12:54:25;22.70;84.50
51559;DHT22;61650;48.882;2.092;2023-06-19T12:56:51;22.50;82.00
51559;DHT22;61650;48.882;2.092;2023-06-19T12:59:17;22.40;88.00
51559;DHT22;61650;48.882;2.092;2023-06-19T13:01:42;22.30;90.70
51559;DHT22;61650;48.882;2.092;2023-06-19T13:04:09;22.10;88.90
51559;DHT22;61650;48.882;2.092;2023-06-19T13:06:39;21.90;90.00
51559;DHT22;61650;48.882;2.092;2023-06-19T13:09:05;21.70;91.80
51559;DHT22;61650;48.882;2.092;2023-06-19T13:11:32;21.40;92.30
51559;DHT22;61650;48.882;2.092;2023-06-19T13:14:00;21.10;93.30
51559;DHT22;61650;48.882;2.092;2023-06-19T13:16:25;20.80;94.10
51559;DHT22;61650;48.882;2.092;2023-06-19T13:18:54;20.50;99.80
51559;DHT22;61650;48.882;2.092;2023-06-19T13:21:19;20.30;99.90
51559;DHT22;61650;48.882;2.092;2023-06-19T13:24:03;20.20;99.90
51559;DHT22;61650;48.882;2.092;2023-06-19T13:26:29;20.20;99.90
51559;DHT22;61650;48.882;2.092;2023-06-19T13:28:54;20.30;99.90
51559;DHT22;61650;48.882;2.092;2023-06-19T13:31:24;20.40;99.90
51559;DHT22;61650;48.882;2.092;2023-06-19T13:33:56;20.50;99.90
51559;DHT22;61650;48.882;2.092;2023-06-19T13:36:22;20.60;99.90
51559;DHT22;61650;48.882;2.092;2023-06-19T13:38:49;20.70;99.90
51559;DHT22;61650;48.882;2.092;2023-06-19T13:41:14;20.80;99.90
51559;DHT22;61650;48.882;2.092;2023-06-19T13:43:40;21.00;99.90
51559;DHT22;61650;48.882;2.092;2023-06-19T13:49:13;21.00;97.00
51559;DHT22;61650;48.882;2.092;2023-06-19T14:02:42;21.20;96.50
51559;DHT22;61650;48.882;2.092;2023-06-19T14:09:09;21.40;94.50
51559;DHT22;61650;48.882;2.092;2023-06-19T14:12:15;21.50;91.50
51559;DHT22;61650;48.882;2.092;2023-06-19T14:18:01;21.70;96.80
51559;DHT22;61650;48.882;2.092;2023-06-19T14:20:30;21.80;97.70
51559;DHT22;61650;48.882;2.092;2023-06-19T14:22:58;21.80;98.20
51559;DHT22;61650;48.882;2.092;2023-06-19T14:25:24;21.80;99.80
51559;DHT22;61650;48.882;2.092;2023-06-19T14:27:50;21.80;98.60
51559;DHT22;61650;48.882;2.092;2023-06-19T14:30:18;21.80;90.80
51559;DHT22;61650;48.882;2.092;2023-06-19T14:32:56;21.70;88.10
51559;DHT22;61650;48.882;2.092;2023-06-19T14:35:21;21.80;87.50
51559;DHT22;61650;48.882;2.092;2023-06-19T14:37:53;21.80;87.80
51559;DHT22;61650;48.882;2.092;2023-06-19T14:40:21;21.80;89.00
51559;DHT22;61650;48.882;2.092;2023-06-19T14:42:47;21.80;84.00
51559;DHT22;61650;48.882;2.092;2023-06-19T14:45:12;21.80;87.00
51559;DHT22;61650;48.882;2.092;2023-06-19T14:47:41;21.90;88.60
51559;DHT22;61650;48.882;2.092;2023-06-19T14:50:07;22.00;90.30
51559;DHT22;61650;48.882;2.092;2023-06-19T14:52:33;22.00;89.80
51559;DHT22;61650;48.882;2.092;2023-06-19T14:54:58;22.10;92.30
51559;DHT22;61650;48.882;2.092;2023-06-19T14:57:25;22.20;90.30
51559;DHT22;61650;48.882;2.092;2023-06-19T14:59:51;22.10;85.30
51559;DHT22;61650;48.882;2.092;2023-06-19T15:02:16;22.10;88.70
51559;DHT22;61650;48.882;2.092;2023-06-19T15:04:42;22.20;90.80
51559;DHT22;61650;48.882;2.092;2023-06-19T15:07:08;22.20;92.80
51559;DHT22;61650;48.882;2.092;2023-06-19T15:09:33;22.20;88.70
51559;DHT22;61650;48.882;2.092;2023-06-19T15:11:59;22.20;86.30
51559;DHT22;61650;48.882;2.092;2023-06-19T15:14:24;22.20;86.70
51559;DHT22;61650;48.882;2.092;2023-06-19T15:16:50;22.30;87.60
51559;DHT22;61650;48.882;2.092;2023-06-19T15:19:16;22.30;87.00
51559;DHT22;61650;48.882;2.092;2023-06-19T15:21:42;22.40;86.40
51559;DHT22;61650;48.882;2.092;2023-06-19T15:24:08;22.40;87.30
51559;DHT22;61650;48.882;2.092;2023-06-19T15:26:36;22.40;86.40
51559;DHT22;61650;48.882;2.092;2023-06-19T15:29:04;22.40;87.50
51559;DHT22;61650;48.882;2.092;2023-06-19T15:31:29;22.30;88.70
51559;DHT22;61650;48.882;2.092;2023-06-19T15:33:55;22.30;87.50
51559;DHT22;61650;48.882;2.092;2023-06-19T15:36:24;22.20;86.80
51559;DHT22;61650;48.882;2.092;2023-06-19T15:38:49;22.20;85.90
51559;DHT22;61650;48.882;2.092;2023-06-19T15:41:15;22.30;86.20
51559;DHT22;61650;48.882;2.092;2023-06-19T15:43:41;22.30;86.00
51559;DHT22;61650;48.882;2.092;2023-06-19T15:46:07;22.40;87.00
51559;DHT22;61650;48.882;2.092;2023-06-19T15:48:36;22.50;82.30
51559;DHT22;61650;48.882;2.092;2023-06-19T15:51:01;22.50;83.30
51559;DHT22;61650;48.882;2.092;2023-06-19T15:53:27;22.60;84.90
51559;DHT22;61650;48.882;2.092;2023-06-19T15:55:53;22.70;83.60